KSSC/SSC METAR and TAF weather

Enter ICAO airport designator
Station Type Date Time Source
KSSC METAR 2021/09/24 04:56 UTC NOAA

KSSC 240456Z AUTO 04003KT 10SM CLR 15/12 A3001 RMK AO2 SLP163 T01500118 402550149 $


Station Type Date Time Source
KSSC Decoded METAR 2021/09/24 04:56 UTC NOAA

Shaw Air Force Base, SC, United States (KSSC) 33-58N 080-29W 73M
Sep 24, 2021 - 12:56 AM EDT / 2021.09.24 0456 UTC
Wind: from the NE (040 degrees) at 3 MPH (3 KT):0
Visibility: 10 mile(s):0
Sky conditions: clear
Temperature: 59.0 F (15.0 C)
Dew Point: 53.2 F (11.8 C)
Relative Humidity: 81%
Pressure (altimeter): 30.01 in. Hg (1016 hPa)
ob: KSSC 240456Z AUTO 04003KT 10SM CLR 15/12 A3001 RMK AO2 SLP163 T01500118 402550149
cycle: 5

Station Type Date Time Source
KSSC TAF 2021/09/23 23:07 UTC NOAA

TAF KSSC 232300Z 2323/2505 36006KT 9999 SKC QNH2993INS
BECMG 2415/2416 04010G15KT 9999 SKC QNH3004INS
BECMG 2422/2423 36006KT 9999 SKC QNH3004INS TX26/2420Z TN13/2411Z

Example: see airport list